To NAV CANADA Home Page Login to a new session Search on AWWS site Disclaimer Vers la page française équivalente Tips FAQ What's new on the site To the Forecasts and Observations / NOTAM section To "File a Flight Plan" website Publications and other links Update of the User's profile FIC Telephone Numbers My Weather Data Folder Route Weather Data Regional Weather Data Local Weather Data To the Forecasts and Observations / NOTAM section
Request Generated 11/16/2018 at 01:07:46 UTC . Weather information available at that time is displayed.

METAR/TAF

FARO/YT    

LWIS CZFA 160100Z AUTO VRB02KT M11/M13 A3036=
LWIS CZFA 160000Z AUTO 30003KT M11/M13 A3035=
METAR CZFA 152300Z 31006KT 30SM -SN OVC044 M11/M13 A3032 RMK SC8 CLIMAT -10.3/-11.1/0.6CM/0.2MWE LAST STFD OBS/NXT 161500UTC SLP331=

*** REMARK        : Forecast period has ended; this was the last TAF issued
*** REMARQUE : La période de prévision est échue; ceci était le dernier TAF qui a été émis
TAF AMD CZFA 151804Z 1518/1523 31005KT P6SM OVC050 TEMPO 1518/1523
2SM -SN OVC020
RMK NXT FCST WILL BE ISSUED AT 161645Z=
Your time UTC time
Weather data provided by Environment Canada and NAV CANADA